Meteo Giornale » Osservazioni meteo Tunisia » Habib Bourguiba
ore: 19:00 - Osservazioni Meteo Habib Bourguiba
Lat. 35° 46' N Lon. 10° 45' E Alt. 2 metri s.l.m.
31 °C
Sereno
Temp. 24 Ore
29 °C
33 °C
Est/Nord-Est
13 Km/h
Dew point 21 °C
Umidità 55 %
Visibilità 10 Km
Il sole sorge alle ore 05:49
Il sole tramonta alle ore 18:45
| Data e Ora | Cielo e Fenomeni | T °C | DP °C | Um. % | Pres. hPa | Vis. km | Vento km/h | |
|---|---|---|---|---|---|---|---|---|
| Oggi h: 19:00 | Sereno | 31 | 21 | 55 | 1017 | 10 | E/NE 13 | |
| Oggi h: 18:30 | Sereno | 33 | 15 | 33 | 1017 | 10 | E 9.3 | |
| Oggi h: 18:00 | Sereno | 33 | 15 | 33 | 1017 | 10 | E 13 | |
| Oggi h: 17:30 | Sereno | 33 | 14 | 31 | 1016 | 10 | E/NE 16.7 | |
| Oggi h: 17:00 | Sereno | 33 | 16 | 36 | 1016 | 10 | E/NE 16.7 | |
| Oggi h: 16:30 | Sereno | 33 | 21 | 49 | 1017 | 10 | E/NE 14.8 | |
| Oggi h: 16:00 | Sereno | 33 | 21 | 49 | 1017 | 10 | E/NE 16.7 | |
| Oggi h: 15:30 | Sereno | 33 | 21 | 49 | 1017 | 10 | NE 16.7 | |
| Oggi h: 15:00 | Sereno | 32 | 23 | 59 | 1017 | 10 | NE 18.5 | |
| Oggi h: 14:30 | Sereno | 32 | 25 | 66 | 1017 | 10 | NE 18.5 | |
| Oggi h: 14:00 | Sereno | 32 | 25 | 66 | 1018 | 10 | NE 20.3 | |
| Oggi h: 13:30 | Sereno | 32 | 25 | 66 | 1018 | 10 | NE 18.5 | |
| Oggi h: 13:00 | Sereno | 32 | 24 | 62 | 1018 | 10 | N/NE 16.7 | |
| Oggi h: 12:30 | Sereno | 32 | 25 | 66 | 1018 | 10 | N/NE 13 | |
| Oggi h: 12:00 | Sereno | 32 | 24 | 62 | 1018 | 10 | NE 11.1 | |
| Oggi h: 11:30 | Poco Nuvoloso | 31 | 25 | 70 | 1018 | 10 | N/NE 13 | |
| Oggi h: 11:00 | Poco Nuvoloso | 32 | 24 | 62 | 1019 | 10 | N 13 | |
| Oggi h: 10:30 | Poco Nuvoloso | 31 | 24 | 66 | 1019 | 10 | N/NE 14.8 | |
| Oggi h: 10:00 | Poco Nuvoloso | 31 | 25 | 70 | 1019 | 10 | N/NE 13 | |
| Oggi h: 09:30 | Sereno | 31 | 25 | 70 | 1018 | 10 | N/NE 13 | |
| Oggi h: 09:00 | Sereno | 31 | 24 | 66 | 1018 | 8 | N 14.8 | |
| Oggi h: 08:30 | Sereno | 30 | 24 | 70 | 1018 | 8 | N 16.7 | |
| Oggi h: 08:00 | Sereno | 30 | 24 | 70 | 1018 | 11 | N 13 | |
| Oggi h: 07:30 | Sereno | 30 | 24 | 70 | 1017 | 8 | N/NE 7.4 | |
| Oggi h: 07:00 | Sereno | 30 | 23 | 66 | 1017 | 8 | N/NE 9.3 | |
| Oggi h: 06:30 | Sereno | 29 | 23 | 70 | 1016 | 8 | E/NE 13 | |
| Oggi h: 06:00 | Sereno | 29 | 23 | 70 | 1016 | 11 | NE 14.8 | |
| Oggi h: 05:30 | Sereno | 30 | 21 | 58 | 1017 | 10 | N/NE 13 | |
| Oggi h: 05:00 | Sereno | 29 | 22 | 66 | 1017 | 10 | N 11.1 | |
| Oggi h: 04:30 | Sereno | 30 | 24 | 70 | 1016 | 10 | N/NE 13 | |
| Oggi h: 04:00 | Sereno | 30 | 23 | 66 | 1017 | 10 | N 13 | |
| Oggi h: 03:30 | Sereno | 30 | 23 | 66 | 1017 | 10 | N/NO 11.1 | |
| Oggi h: 03:00 | Poco Nuvoloso | 31 | 23 | 62 | 1017 | 8 | N 18.5 | |
| Oggi h: 02:30 | Poco Nuvoloso | 30 | 23 | 66 | 1016 | 8 | N 1.8 | |
| Oggi h: 02:00 | Poco Nuvoloso | 30 | 25 | 74 | 1016 | 8 | N 5.5 | |
| Oggi h: 01:30 | Poco Nuvoloso | 30 | 25 | 74 | 1016 | 8 | E 11.1 | |
| Oggi h: 01:00 | Poco Nuvoloso | 30 | 25 | 74 | 1016 | 8 | E/NE 13 | |
| Oggi h: 00:30 | Poco Nuvoloso | 30 | 25 | 74 | 1016 | 8 | E/NE 14.8 | |
| Oggi h: 00:00 | Poco Nuvoloso | 30 | 25 | 74 | 1016 | 8 | E/NE 14.8 | |
| Ieri h: 23:30 | Poco Nuvoloso | 30 | 26 | 79 | 1016 | 8 | NE 16.7 | |
| Ieri h: 23:00 | Poco Nuvoloso | 30 | 27 | 84 | 1016 | 8 | NE 16.7 | |
| Ieri h: 22:30 | Poco Nuvoloso | 30 | 27 | 84 | 1017 | 8 | N/NE 18.5 | |
| Ieri h: 22:00 | Poco Nuvoloso | 31 | 27 | 79 | 1017 | 8 | N/NE 14.8 | |
| Ieri h: 21:30 | Poco Nuvoloso | 31 | 26 | 74 | 1017 | 8 | N 5.5 | |
| Ieri h: 21:00 | Poco Nuvoloso | 31 | 27 | 79 | 1018 | 8 | N 14.8 | |
| Ieri h: 20:30 | Poco Nuvoloso | 31 | 27 | 79 | 1018 | 8 | N 18.5 | |
| Ieri h: 20:00 | Poco Nuvoloso | 31 | 27 | 79 | 1017 | 8 | NE 11.1 | |



